sensor_id;sensor_type;location;lat;lon;timestamp;pressure;altitude;pressure_sealevel;temperature;humidity
9335;BME280;4706;41.844;26.082;2023-06-14T00:00:38;100378.78;;;23.05;67.77
9335;BME280;4706;41.844;26.082;2023-06-14T00:03:08;100373.03;;;22.87;68.36
9335;BME280;4706;41.844;26.082;2023-06-14T00:05:36;100377.69;;;22.69;69.20
9335;BME280;4706;41.844;26.082;2023-06-14T00:08:06;100376.09;;;22.71;69.17
9335;BME280;4706;41.844;26.082;2023-06-14T00:10:35;100383.63;;;22.64;69.43
9335;BME280;4706;41.844;26.082;2023-06-14T00:13:04;100380.88;;;22.71;69.37
9335;BME280;4706;41.844;26.082;2023-06-14T00:15:31;100378.31;;;22.96;68.01
9335;BME280;4706;41.844;26.082;2023-06-14T00:17:57;100376.28;;;22.93;68.25
9335;BME280;4706;41.844;26.082;2023-06-14T00:20:29;100379.41;;;22.84;68.19
9335;BME280;4706;41.844;26.082;2023-06-14T00:22:56;100376.94;;;22.79;68.37
9335;BME280;4706;41.844;26.082;2023-06-14T00:25:25;100368.91;;;22.74;68.79
9335;BME280;4706;41.844;26.082;2023-06-14T00:27:51;100379.69;;;22.68;69.10
9335;BME280;4706;41.844;26.082;2023-06-14T00:30:16;100371.22;;;22.61;69.07
9335;BME280;4706;41.844;26.082;2023-06-14T00:32:43;100360.56;;;22.81;68.22
9335;BME280;4706;41.844;26.082;2023-06-14T00:35:09;100366.09;;;22.74;68.56
9335;BME280;4706;41.844;26.082;2023-06-14T00:37:35;100375.50;;;22.96;67.68
9335;BME280;4706;41.844;26.082;2023-06-14T00:40:00;100362.34;;;23.03;67.39
9335;BME280;4706;41.844;26.082;2023-06-14T00:42:27;100359.03;;;22.91;67.38
9335;BME280;4706;41.844;26.082;2023-06-14T00:44:53;100353.47;;;22.98;67.45
9335;BME280;4706;41.844;26.082;2023-06-14T00:47:18;100353.16;;;23.10;66.41
9335;BME280;4706;41.844;26.082;2023-06-14T00:49:49;100351.88;;;22.97;67.97
9335;BME280;4706;41.844;26.082;2023-06-14T00:52:17;100342.94;;;22.81;69.14
9335;BME280;4706;41.844;26.082;2023-06-14T00:54:43;100354.06;;;22.70;69.86
9335;BME280;4706;41.844;26.082;2023-06-14T00:57:10;100341.56;;;22.60;70.56
9335;BME280;4706;41.844;26.082;2023-06-14T00:59:43;100339.09;;;22.51;70.64
9335;BME280;4706;41.844;26.082;2023-06-14T01:02:10;100349.63;;;22.65;70.25
9335;BME280;4706;41.844;26.082;2023-06-14T01:04:36;100354.84;;;22.70;69.33
9335;BME280;4706;41.844;26.082;2023-06-14T01:12:15;100348.78;;;22.61;68.84
9335;BME280;4706;41.844;26.082;2023-06-14T01:14:42;100325.00;;;22.44;69.39
9335;BME280;4706;41.844;26.082;2023-06-14T01:17:08;100339.34;;;22.36;69.93
9335;BME280;4706;41.844;26.082;2023-06-14T01:19:45;100336.56;;;22.36;69.84
9335;BME280;4706;41.844;26.082;2023-06-14T01:22:11;100335.06;;;22.49;69.42
9335;BME280;4706;41.844;26.082;2023-06-14T01:24:36;100335.91;;;22.57;69.25
9335;BME280;4706;41.844;26.082;2023-06-14T01:27:05;100338.75;;;22.60;69.31
9335;BME280;4706;41.844;26.082;2023-06-14T01:29:32;100337.53;;;22.58;69.19
9335;BME280;4706;41.844;26.082;2023-06-14T01:32:02;100354.38;;;22.58;69.26
9335;BME280;4706;41.844;26.082;2023-06-14T01:34:27;100349.94;;;22.57;69.35
9335;BME280;4706;41.844;26.082;2023-06-14T01:36:53;100348.66;;;22.47;69.41
9335;BME280;4706;41.844;26.082;2023-06-14T01:39:23;100347.97;;;22.57;69.25
9335;BME280;4706;41.844;26.082;2023-06-14T01:41:49;100345.94;;;22.54;69.24
9335;BME280;4706;41.844;26.082;2023-06-14T01:44:17;100343.97;;;22.62;69.03
9335;BME280;4706;41.844;26.082;2023-06-14T01:46:43;100334.03;;;22.71;69.29
9335;BME280;4706;41.844;26.082;2023-06-14T01:49:10;100336.88;;;22.78;69.30
9335;BME280;4706;41.844;26.082;2023-06-14T01:51:36;100340.09;;;22.77;69.65
9335;BME280;4706;41.844;26.082;2023-06-14T01:54:01;100348.00;;;22.68;69.91
9335;BME280;4706;41.844;26.082;2023-06-14T01:56:27;100349.66;;;22.69;69.96
9335;BME280;4706;41.844;26.082;2023-06-14T01:58:53;100349.28;;;22.74;70.02
9335;BME280;4706;41.844;26.082;2023-06-14T02:01:19;100350.47;;;22.73;69.62
9335;BME280;4706;41.844;26.082;2023-06-14T02:03:47;100348.91;;;22.75;69.19
9335;BME280;4706;41.844;26.082;2023-06-14T02:06:13;100353.28;;;22.73;69.62
9335;BME280;4706;41.844;26.082;2023-06-14T02:08:41;100353.75;;;22.82;69.27
9335;BME280;4706;41.844;26.082;2023-06-14T02:11:06;100345.75;;;22.84;68.82
9335;BME280;4706;41.844;26.082;2023-06-14T02:13:32;100349.72;;;22.76;69.06
9335;BME280;4706;41.844;26.082;2023-06-14T02:15:57;100360.09;;;22.72;69.13
9335;BME280;4706;41.844;26.082;2023-06-14T02:18:24;100357.28;;;22.72;68.94
9335;BME280;4706;41.844;26.082;2023-06-14T02:20:50;100353.63;;;22.64;69.40
9335;BME280;4706;41.844;26.082;2023-06-14T02:23:16;100343.94;;;22.54;69.46
9335;BME280;4706;41.844;26.082;2023-06-14T02:25:41;100333.44;;;22.48;69.25
9335;BME280;4706;41.844;26.082;2023-06-14T02:28:08;100342.28;;;22.50;69.24
9335;BME280;4706;41.844;26.082;2023-06-14T02:30:34;100338.94;;;22.34;69.97
9335;BME280;4706;41.844;26.082;2023-06-14T02:32:59;100352.38;;;22.17;70.98
9335;BME280;4706;41.844;26.082;2023-06-14T02:35:25;100364.44;;;22.21;70.98
9335;BME280;4706;41.844;26.082;2023-06-14T02:37:52;100349.97;;;22.16;71.16
9335;BME280;4706;41.844;26.082;2023-06-14T02:40:19;100355.03;;;22.06;71.42
9335;BME280;4706;41.844;26.082;2023-06-14T02:42:44;100370.47;;;22.23;71.29
9335;BME280;4706;41.844;26.082;2023-06-14T02:45:10;100367.28;;;22.25;71.41
9335;BME280;4706;41.844;26.082;2023-06-14T02:47:35;100367.22;;;22.21;71.59
9335;BME280;4706;41.844;26.082;2023-06-14T02:50:01;100364.34;;;22.14;71.92
9335;BME280;4706;41.844;26.082;2023-06-14T02:52:28;100371.53;;;22.12;72.39
9335;BME280;4706;41.844;26.082;2023-06-14T02:54:54;100365.63;;;22.20;71.81
9335;BME280;4706;41.844;26.082;2023-06-14T02:57:20;100366.78;;;22.16;72.17
9335;BME280;4706;41.844;26.082;2023-06-14T02:59:46;100372.47;;;22.26;71.93
9335;BME280;4706;41.844;26.082;2023-06-14T03:02:11;100373.72;;;22.29;71.60
9335;BME280;4706;41.844;26.082;2023-06-14T03:04:37;100374.91;;;22.28;71.44
9335;BME280;4706;41.844;26.082;2023-06-14T03:07:03;100370.25;;;22.43;71.40
9335;BME280;4706;41.844;26.082;2023-06-14T03:09:37;100365.03;;;22.45;71.18
9335;BME280;4706;41.844;26.082;2023-06-14T03:12:04;100386.25;;;22.42;71.35
9335;BME280;4706;41.844;26.082;2023-06-14T03:14:30;100366.72;;;22.49;71.08
9335;BME280;4706;41.844;26.082;2023-06-14T03:16:56;100377.41;;;22.40;71.74
9335;BME280;4706;41.844;26.082;2023-06-14T03:19:22;100375.50;;;22.48;71.16
9335;BME280;4706;41.844;26.082;2023-06-14T03:21:48;100388.66;;;22.44;71.44
9335;BME280;4706;41.844;26.082;2023-06-14T03:24:14;100370.69;;;22.48;71.34
9335;BME280;4706;41.844;26.082;2023-06-14T03:26:41;100381.25;;;22.66;71.00
9335;BME280;4706;41.844;26.082;2023-06-14T03:29:07;100378.75;;;22.53;71.43
9335;BME280;4706;41.844;26.082;2023-06-14T03:31:34;100379.94;;;22.52;71.61
9335;BME280;4706;41.844;26.082;2023-06-14T03:34:00;100372.75;;;22.55;71.75
9335;BME280;4706;41.844;26.082;2023-06-14T03:36:26;100377.06;;;22.45;71.76
9335;BME280;4706;41.844;26.082;2023-06-14T03:38:53;100383.38;;;22.35;72.31
9335;BME280;4706;41.844;26.082;2023-06-14T03:41:19;100386.25;;;22.42;72.51
9335;BME280;4706;41.844;26.082;2023-06-14T03:43:45;100381.56;;;22.53;72.09
9335;BME280;4706;41.844;26.082;2023-06-14T03:46:10;100381.34;;;22.76;71.48
9335;BME280;4706;41.844;26.082;2023-06-14T03:48:36;100388.41;;;23.08;69.62
9335;BME280;4706;41.844;26.082;2023-06-14T03:51:01;100377.91;;;22.97;70.16
9335;BME280;4706;41.844;26.082;2023-06-14T03:53:27;100383.25;;;23.17;69.20
9335;BME280;4706;41.844;26.082;2023-06-14T03:55:54;100375.13;;;23.01;69.61
9335;BME280;4706;41.844;26.082;2023-06-14T03:58:20;100386.81;;;23.07;69.83
9335;BME280;4706;41.844;26.082;2023-06-14T04:00:46;100387.31;;;23.23;69.11
9335;BME280;4706;41.844;26.082;2023-06-14T04:03:12;100381.00;;;23.40;68.58
9335;BME280;4706;41.844;26.082;2023-06-14T04:05:41;100388.66;;;23.54;68.32
9335;BME280;4706;41.844;26.082;2023-06-14T04:08:09;100388.72;;;23.61;68.08
9335;BME280;4706;41.844;26.082;2023-06-14T04:10:35;100394.00;;;23.66;66.93
9335;BME280;4706;41.844;26.082;2023-06-14T04:13:01;100387.91;;;23.61;66.46
9335;BME280;4706;41.844;26.082;2023-06-14T04:15:26;100394.41;;;23.75;66.46
9335;BME280;4706;41.844;26.082;2023-06-14T04:17:54;100396.84;;;23.81;66.36
9335;BME280;4706;41.844;26.082;2023-06-14T04:20:22;100395.31;;;24.01;65.84
9335;BME280;4706;41.844;26.082;2023-06-14T04:22:50;100410.59;;;24.18;64.95
9335;BME280;4706;41.844;26.082;2023-06-14T04:25:16;100402.63;;;24.31;64.57
9335;BME280;4706;41.844;26.082;2023-06-14T04:27:42;100400.19;;;24.33;64.53
9335;BME280;4706;41.844;26.082;2023-06-14T04:30:07;100412.66;;;24.28;64.19
9335;BME280;4706;41.844;26.082;2023-06-14T04:32:33;100409.13;;;24.53;63.94
9335;BME280;4706;41.844;26.082;2023-06-14T04:35:08;100408.31;;;24.45;63.52
9335;BME280;4706;41.844;26.082;2023-06-14T04:37:34;100420.34;;;24.67;62.97
9335;BME280;4706;41.844;26.082;2023-06-14T04:40:00;100427.22;;;24.80;62.13
9335;BME280;4706;41.844;26.082;2023-06-14T04:42:26;100428.41;;;24.90;61.68
9335;BME280;4706;41.844;26.082;2023-06-14T04:44:56;100428.38;;;25.08;61.31
9335;BME280;4706;41.844;26.082;2023-06-14T04:47:22;100424.00;;;25.10;61.46
9335;BME280;4706;41.844;26.082;2023-06-14T04:49:50;100432.00;;;25.37;60.35
9335;BME280;4706;41.844;26.082;2023-06-14T04:52:19;100440.00;;;25.56;60.42
9335;BME280;4706;41.844;26.082;2023-06-14T04:54:46;100440.75;;;25.71;59.58
9335;BME280;4706;41.844;26.082;2023-06-14T04:57:12;100437.16;;;25.81;58.92
9335;BME280;4706;41.844;26.082;2023-06-14T04:59:43;100444.38;;;25.86;58.76
9335;BME280;4706;41.844;26.082;2023-06-14T05:02:10;100452.78;;;25.97;58.73
9335;BME280;4706;41.844;26.082;2023-06-14T05:04:37;100451.97;;;26.00;58.17
9335;BME280;4706;41.844;26.082;2023-06-14T05:07:08;100437.44;;;26.05;57.87
9335;BME280;4706;41.844;26.082;2023-06-14T05:09:35;100445.88;;;26.12;57.95
9335;BME280;4706;41.844;26.082;2023-06-14T05:12:01;100455.06;;;26.23;58.36
9335;BME280;4706;41.844;26.082;2023-06-14T05:14:27;100457.38;;;26.39;57.30
9335;BME280;4706;41.844;26.082;2023-06-14T05:16:52;100457.78;;;26.48;56.86
9335;BME280;4706;41.844;26.082;2023-06-14T05:19:19;100456.13;;;26.54;55.98
9335;BME280;4706;41.844;26.082;2023-06-14T05:21:47;100455.63;;;26.67;55.06
9335;BME280;4706;41.844;26.082;2023-06-14T05:24:13;100454.81;;;26.66;55.40
9335;BME280;4706;41.844;26.082;2023-06-14T05:26:39;100469.25;;;26.79;55.60
9335;BME280;4706;41.844;26.082;2023-06-14T05:29:05;100469.97;;;26.90;54.75
9335;BME280;4706;41.844;26.082;2023-06-14T05:31:31;100473.50;;;27.05;53.71
9335;BME280;4706;41.844;26.082;2023-06-14T05:33:56;100470.72;;;26.98;53.40
9335;BME280;4706;41.844;26.082;2023-06-14T05:36:22;100471.84;;;27.07;53.56
9335;BME280;4706;41.844;26.082;2023-06-14T05:38:48;100478.22;;;27.19;53.05
9335;BME280;4706;41.844;26.082;2023-06-14T05:41:13;100490.50;;;27.46;53.19
9335;BME280;4706;41.844;26.082;2023-06-14T05:43:39;100497.16;;;27.63;52.97
9335;BME280;4706;41.844;26.082;2023-06-14T05:46:05;100492.31;;;27.64;51.84
9335;BME280;4706;41.844;26.082;2023-06-14T05:48:30;100486.41;;;27.51;52.43
9335;BME280;4706;41.844;26.082;2023-06-14T05:50:56;100498.72;;;27.68;52.78
9335;BME280;4706;41.844;26.082;2023-06-14T05:53:21;100455.94;;;27.69;52.04
9335;BME280;4706;41.844;26.082;2023-06-14T05:55:47;100488.97;;;28.14;51.06
9335;BME280;4706;41.844;26.082;2023-06-14T05:58:12;100488.25;;;28.37;49.76
9335;BME280;4706;41.844;26.082;2023-06-14T06:00:39;100495.38;;;28.48;48.83
9335;BME280;4706;41.844;26.082;2023-06-14T06:03:04;100500.25;;;28.48;47.64
9335;BME280;4706;41.844;26.082;2023-06-14T06:05:34;100501.59;;;28.36;47.49
9335;BME280;4706;41.844;26.082;2023-06-14T06:08:00;100491.34;;;28.15;47.88
9335;BME280;4706;41.844;26.082;2023-06-14T06:10:25;100507.84;;;28.20;48.12
9335;BME280;4706;41.844;26.082;2023-06-14T06:12:51;100499.41;;;28.17;48.45
9335;BME280;4706;41.844;26.082;2023-06-14T06:15:18;100494.66;;;28.10;48.62
9335;BME280;4706;41.844;26.082;2023-06-14T06:17:43;100502.63;;;28.19;47.69
9335;BME280;4706;41.844;26.082;2023-06-14T06:20:10;100499.06;;;28.11;47.24
9335;BME280;4706;41.844;26.082;2023-06-14T06:22:37;100497.66;;;28.26;47.14
9335;BME280;4706;41.844;26.082;2023-06-14T06:25:03;100484.13;;;28.45;44.62
9335;BME280;4706;41.844;26.082;2023-06-14T06:27:28;100497.41;;;28.75;43.75
9335;BME280;4706;41.844;26.082;2023-06-14T06:29:54;100494.59;;;29.02;44.53
9335;BME280;4706;41.844;26.082;2023-06-14T06:32:20;100476.75;;;29.28;43.10
9335;BME280;4706;41.844;26.082;2023-06-14T06:34:45;100489.22;;;29.55;42.81
9335;BME280;4706;41.844;26.082;2023-06-14T06:37:11;100499.03;;;29.73;41.73
9335;BME280;4706;41.844;26.082;2023-06-14T06:39:37;100500.78;;;29.87;41.63
9335;BME280;4706;41.844;26.082;2023-06-14T06:42:02;100503.63;;;30.07;40.65
9335;BME280;4706;41.844;26.082;2023-06-14T06:44:28;100499.59;;;30.05;40.35
9335;BME280;4706;41.844;26.082;2023-06-14T06:46:54;100489.59;;;29.80;40.33
9335;BME280;4706;41.844;26.082;2023-06-14T06:49:19;100496.38;;;29.63;41.05
9335;BME280;4706;41.844;26.082;2023-06-14T06:52:05;100489.66;;;29.76;40.92
9335;BME280;4706;41.844;26.082;2023-06-14T06:54:31;100495.41;;;29.26;40.47
9335;BME280;4706;41.844;26.082;2023-06-14T06:56:57;100488.94;;;29.49;41.18
9335;BME280;4706;41.844;26.082;2023-06-14T06:59:23;100486.97;;;29.46;41.15
9335;BME280;4706;41.844;26.082;2023-06-14T07:01:49;100479.25;;;29.46;41.04
9335;BME280;4706;41.844;26.082;2023-06-14T07:04:14;100482.59;;;29.65;41.65
9335;BME280;4706;41.844;26.082;2023-06-14T07:06:42;100483.50;;;30.02;40.63
9335;BME280;4706;41.844;26.082;2023-06-14T07:09:07;100492.78;;;30.02;40.07
9335;BME280;4706;41.844;26.082;2023-06-14T07:11:40;100479.19;;;29.73;39.79
9335;BME280;4706;41.844;26.082;2023-06-14T07:14:06;100493.50;;;29.86;40.46
9335;BME280;4706;41.844;26.082;2023-06-14T07:16:32;100488.47;;;29.94;39.86
9335;BME280;4706;41.844;26.082;2023-06-14T07:18:58;100485.00;;;30.26;39.53
9335;BME280;4706;41.844;26.082;2023-06-14T07:21:23;100481.81;;;29.84;40.36
9335;BME280;4706;41.844;26.082;2023-06-14T07:23:52;100479.34;;;30.06;40.45
9335;BME280;4706;41.844;26.082;2023-06-14T07:26:18;100489.28;;;30.14;39.80
9335;BME280;4706;41.844;26.082;2023-06-14T07:28:44;100477.22;;;30.10;39.75
9335;BME280;4706;41.844;26.082;2023-06-14T07:31:12;100474.53;;;30.23;40.65
9335;BME280;4706;41.844;26.082;2023-06-14T07:33:38;100471.69;;;30.59;40.99
9335;BME280;4706;41.844;26.082;2023-06-14T07:36:03;100468.28;;;31.01;39.62
9335;BME280;4706;41.844;26.082;2023-06-14T07:38:29;100460.53;;;31.50;37.63
9335;BME280;4706;41.844;26.082;2023-06-14T07:40:55;100462.53;;;31.66;36.77
9335;BME280;4706;41.844;26.082;2023-06-14T07:43:21;100468.91;;;31.99;36.51
9335;BME280;4706;41.844;26.082;2023-06-14T07:45:46;100465.34;;;32.24;36.69
9335;BME280;4706;41.844;26.082;2023-06-14T07:48:12;100467.72;;;32.13;36.77
9335;BME280;4706;41.844;26.082;2023-06-14T07:50:37;100474.75;;;31.79;36.23
9335;BME280;4706;41.844;26.082;2023-06-14T07:53:03;100472.53;;;31.87;36.50
9335;BME280;4706;41.844;26.082;2023-06-14T07:55:28;100465.88;;;32.19;36.28
9335;BME280;4706;41.844;26.082;2023-06-14T07:57:54;100467.41;;;32.36;35.55
9335;BME280;4706;41.844;26.082;2023-06-14T08:00:20;100462.41;;;32.53;34.53
9335;BME280;4706;41.844;26.082;2023-06-14T08:02:46;100471.75;;;32.67;34.74
9335;BME280;4706;41.844;26.082;2023-06-14T08:05:12;100460.13;;;32.61;34.45
9335;BME280;4706;41.844;26.082;2023-06-14T08:07:39;100462.88;;;32.52;34.57
9335;BME280;4706;41.844;26.082;2023-06-14T08:10:05;100461.50;;;32.82;34.97
9335;BME280;4706;41.844;26.082;2023-06-14T08:12:32;100455.44;;;33.05;35.23
9335;BME280;4706;41.844;26.082;2023-06-14T08:14:59;100453.69;;;33.33;34.72
9335;BME280;4706;41.844;26.082;2023-06-14T08:17:25;100456.25;;;33.75;33.99
9335;BME280;4706;41.844;26.082;2023-06-14T08:19:50;100464.75;;;33.88;32.31
9335;BME280;4706;41.844;26.082;2023-06-14T08:22:16;100466.88;;;33.53;33.63
9335;BME280;4706;41.844;26.082;2023-06-14T08:24:43;100464.66;;;33.22;32.87
9335;BME280;4706;41.844;26.082;2023-06-14T08:27:10;100464.47;;;33.39;33.00
9335;BME280;4706;41.844;26.082;2023-06-14T08:29:35;100467.72;;;33.63;32.88
9335;BME280;4706;41.844;26.082;2023-06-14T08:32:01;100457.84;;;33.76;33.17
9335;BME280;4706;41.844;26.082;2023-06-14T08:34:27;100452.63;;;33.40;32.83
9335;BME280;4706;41.844;26.082;2023-06-14T08:36:53;100459.53;;;33.17;34.02
9335;BME280;4706;41.844;26.082;2023-06-14T08:39:18;100468.31;;;33.57;33.56
9335;BME280;4706;41.844;26.082;2023-06-14T08:41:47;100466.00;;;33.87;32.27
9335;BME280;4706;41.844;26.082;2023-06-14T08:44:19;100461.91;;;34.10;31.20
9335;BME280;4706;41.844;26.082;2023-06-14T08:46:45;100463.19;;;34.40;31.33
9335;BME280;4706;41.844;26.082;2023-06-14T08:49:16;100470.94;;;34.71;30.99
9335;BME280;4706;41.844;26.082;2023-06-14T08:51:43;100466.88;;;34.90;31.25
9335;BME280;4706;41.844;26.082;2023-06-14T08:54:11;100469.44;;;34.88;31.51
9335;BME280;4706;41.844;26.082;2023-06-14T08:56:38;100457.22;;;34.88;30.41
9335;BME280;4706;41.844;26.082;2023-06-14T08:59:04;100471.34;;;34.91;30.42
9335;BME280;4706;41.844;26.082;2023-06-14T09:01:33;100473.94;;;35.08;29.69
9335;BME280;4706;41.844;26.082;2023-06-14T09:03:59;100472.41;;;34.75;29.91
9335;BME280;4706;41.844;26.082;2023-06-14T09:06:25;100478.84;;;34.04;31.43
9335;BME280;4706;41.844;26.082;2023-06-14T09:08:54;100483.22;;;33.74;31.65
9335;BME280;4706;41.844;26.082;2023-06-14T09:11:22;100481.84;;;33.66;31.36
9335;BME280;4706;41.844;26.082;2023-06-14T09:13:48;100490.31;;;34.14;31.30
9335;BME280;4706;41.844;26.082;2023-06-14T09:16:15;100477.09;;;34.29;30.10
9335;BME280;4706;41.844;26.082;2023-06-14T09:18:42;100485.00;;;34.25;30.02
9335;BME280;4706;41.844;26.082;2023-06-14T09:21:10;100483.56;;;33.98;30.68
9335;BME280;4706;41.844;26.082;2023-06-14T09:23:41;100476.56;;;33.55;31.47
9335;BME280;4706;41.844;26.082;2023-06-14T09:26:14;100485.25;;;33.52;32.07
9335;BME280;4706;41.844;26.082;2023-06-14T09:28:45;100476.50;;;33.90;30.93
9335;BME280;4706;41.844;26.082;2023-06-14T09:31:16;100483.94;;;33.88;30.34
9335;BME280;4706;41.844;26.082;2023-06-14T09:33:45;100484.88;;;33.50;31.45
9335;BME280;4706;41.844;26.082;2023-06-14T09:36:24;100479.53;;;33.52;31.17
9335;BME280;4706;41.844;26.082;2023-06-14T09:41:18;100470.31;;;34.36;29.02
9335;BME280;4706;41.844;26.082;2023-06-14T09:43:46;100485.88;;;34.13;29.72
9335;BME280;4706;41.844;26.082;2023-06-14T09:46:12;100485.09;;;34.12;28.97
9335;BME280;4706;41.844;26.082;2023-06-14T09:48:38;100476.38;;;34.16;29.02
9335;BME280;4706;41.844;26.082;2023-06-14T09:51:10;100476.06;;;34.45;29.35
9335;BME280;4706;41.844;26.082;2023-06-14T09:53:36;100469.34;;;34.61;29.31
9335;BME280;4706;41.844;26.082;2023-06-14T09:56:04;100469.59;;;34.94;28.89
9335;BME280;4706;41.844;26.082;2023-06-14T09:58:30;100466.69;;;35.25;27.91
9335;BME280;4706;41.844;26.082;2023-06-14T10:00:59;100465.41;;;35.26;27.48
9335;BME280;4706;41.844;26.082;2023-06-14T10:03:28;100462.84;;;35.10;27.17
9335;BME280;4706;41.844;26.082;2023-06-14T10:05:55;100456.69;;;35.48;27.57
9335;BME280;4706;41.844;26.082;2023-06-14T10:08:25;100458.09;;;34.66;27.79
9335;BME280;4706;41.844;26.082;2023-06-14T10:10:53;100459.81;;;33.32;29.55
9335;BME280;4706;41.844;26.082;2023-06-14T10:13:20;100462.63;;;32.72;30.40
9335;BME280;4706;41.844;26.082;2023-06-14T10:15:54;100450.56;;;32.42;31.81
9335;BME280;4706;41.844;26.082;2023-06-14T10:18:48;100453.66;;;32.60;31.15
9335;BME280;4706;41.844;26.082;2023-06-14T10:23:44;100435.19;;;33.03;31.77
9335;BME280;4706;41.844;26.082;2023-06-14T10:26:20;100439.41;;;33.68;30.09
9335;BME280;4706;41.844;26.082;2023-06-14T10:28:59;100430.69;;;34.47;29.61
9335;BME280;4706;41.844;26.082;2023-06-14T10:34:07;100433.72;;;34.84;29.09
9335;BME280;4706;41.844;26.082;2023-06-14T10:36:33;100442.03;;;35.09;28.02
9335;BME280;4706;41.844;26.082;2023-06-14T10:39:15;100444.28;;;35.23;27.78
9335;BME280;4706;41.844;26.082;2023-06-14T10:41:52;100438.09;;;35.43;27.27
9335;BME280;4706;41.844;26.082;2023-06-14T10:46:54;100425.38;;;35.72;27.36
9335;BME280;4706;41.844;26.082;2023-06-14T10:49:45;100419.50;;;35.30;27.75
9335;BME280;4706;41.844;26.082;2023-06-14T10:52:15;100415.38;;;35.67;27.84
9335;BME280;4706;41.844;26.082;2023-06-14T10:55:03;100416.63;;;35.85;27.83
9335;BME280;4706;41.844;26.082;2023-06-14T10:57:40;100416.16;;;35.31;27.88
9335;BME280;4706;41.844;26.082;2023-06-14T11:00:07;100410.22;;;34.79;28.79
9335;BME280;4706;41.844;26.082;2023-06-14T11:05:23;100400.75;;;34.51;28.94
9335;BME280;4706;41.844;26.082;2023-06-14T11:10:39;100406.94;;;35.18;28.70
9335;BME280;4706;41.844;26.082;2023-06-14T11:13:06;100407.28;;;35.47;27.89
9335;BME280;4706;41.844;26.082;2023-06-14T11:15:33;100405.84;;;35.15;28.66
9335;BME280;4706;41.844;26.082;2023-06-14T11:18:04;100405.09;;;34.74;28.05
9335;BME280;4706;41.844;26.082;2023-06-14T11:20:32;100405.53;;;34.64;28.50
9335;BME280;4706;41.844;26.082;2023-06-14T11:22:58;100407.06;;;34.96;27.95
9335;BME280;4706;41.844;26.082;2023-06-14T11:25:24;100404.00;;;34.72;29.17
9335;BME280;4706;41.844;26.082;2023-06-14T11:27:50;100401.38;;;34.55;29.55
9335;BME280;4706;41.844;26.082;2023-06-14T11:30:16;100411.53;;;34.56;29.60
9335;BME280;4706;41.844;26.082;2023-06-14T11:32:45;100403.47;;;34.55;29.93
9335;BME280;4706;41.844;26.082;2023-06-14T11:35:11;100387.59;;;34.54;29.75
9335;BME280;4706;41.844;26.082;2023-06-14T11:37:36;100387.81;;;34.38;30.03
9335;BME280;4706;41.844;26.082;2023-06-14T11:40:04;100398.75;;;34.70;30.11
9335;BME280;4706;41.844;26.082;2023-06-14T11:42:39;100393.41;;;34.91;28.98
9335;BME280;4706;41.844;26.082;2023-06-14T11:45:09;100401.44;;;34.74;28.69
9335;BME280;4706;41.844;26.082;2023-06-14T11:47:36;100396.66;;;34.71;28.79
9335;BME280;4706;41.844;26.082;2023-06-14T11:50:04;100397.09;;;34.51;28.78
9335;BME280;4706;41.844;26.082;2023-06-14T11:52:31;100390.25;;;33.86;30.08
9335;BME280;4706;41.844;26.082;2023-06-14T11:54:57;100382.22;;;33.94;29.82
9335;BME280;4706;41.844;26.082;2023-06-14T11:57:24;100379.63;;;34.08;30.25
9335;BME280;4706;41.844;26.082;2023-06-14T11:59:50;100385.91;;;34.35;29.46
9335;BME280;4706;41.844;26.082;2023-06-14T12:02:16;100384.91;;;34.60;29.46
9335;BME280;4706;41.844;26.082;2023-06-14T12:04:43;100401.47;;;34.83;28.71
9335;BME280;4706;41.844;26.082;2023-06-14T12:07:13;100376.53;;;34.74;28.78
9335;BME280;4706;41.844;26.082;2023-06-14T12:12:30;100376.22;;;34.82;28.57
9335;BME280;4706;41.844;26.082;2023-06-14T12:14:56;100383.44;;;35.14;28.82
9335;BME280;4706;41.844;26.082;2023-06-14T12:17:22;100378.97;;;35.03;28.38
9335;BME280;4706;41.844;26.082;2023-06-14T12:19:48;100384.16;;;34.77;28.78
9335;BME280;4706;41.844;26.082;2023-06-14T12:22:15;100381.94;;;34.82;29.30
9335;BME280;4706;41.844;26.082;2023-06-14T12:24:44;100371.84;;;35.08;28.38
9335;BME280;4706;41.844;26.082;2023-06-14T12:27:10;100363.56;;;35.01;28.52
9335;BME280;4706;41.844;26.082;2023-06-14T12:29:44;100371.03;;;34.98;29.14
9335;BME280;4706;41.844;26.082;2023-06-14T12:32:11;100377.31;;;34.75;29.36
9335;BME280;4706;41.844;26.082;2023-06-14T12:34:37;100373.25;;;34.45;29.61
9335;BME280;4706;41.844;26.082;2023-06-14T12:37:16;100376.25;;;34.41;30.33
9335;BME280;4706;41.844;26.082;2023-06-14T12:39:42;100361.66;;;34.39;30.29
9335;BME280;4706;41.844;26.082;2023-06-14T12:42:27;100364.09;;;34.50;30.34
9335;BME280;4706;41.844;26.082;2023-06-14T12:45:13;100366.81;;;34.53;30.38
9335;BME280;4706;41.844;26.082;2023-06-14T12:47:39;100353.59;;;34.47;29.91
9335;BME280;4706;41.844;26.082;2023-06-14T12:50:05;100354.59;;;34.22;30.08
9335;BME280;4706;41.844;26.082;2023-06-14T12:52:31;100343.84;;;33.95;30.79
9335;BME280;4706;41.844;26.082;2023-06-14T12:54:57;100352.66;;;34.10;30.40
9335;BME280;4706;41.844;26.082;2023-06-14T12:57:23;100360.56;;;34.05;30.91
9335;BME280;4706;41.844;26.082;2023-06-14T12:59:48;100349.38;;;33.89;30.34
9335;BME280;4706;41.844;26.082;2023-06-14T13:02:16;100355.72;;;33.93;31.12
9335;BME280;4706;41.844;26.082;2023-06-14T13:04:42;100342.56;;;33.96;30.82
9335;BME280;4706;41.844;26.082;2023-06-14T13:07:08;100351.88;;;33.87;31.32
9335;BME280;4706;41.844;26.082;2023-06-14T13:09:36;100351.34;;;33.70;31.39
9335;BME280;4706;41.844;26.082;2023-06-14T13:12:01;100347.88;;;33.53;31.16
9335;BME280;4706;41.844;26.082;2023-06-14T13:14:27;100346.31;;;33.40;31.10
9335;BME280;4706;41.844;26.082;2023-06-14T13:16:53;100343.53;;;33.27;31.24
9335;BME280;4706;41.844;26.082;2023-06-14T13:19:18;100347.78;;;32.87;32.17
9335;BME280;4706;41.844;26.082;2023-06-14T13:21:47;100342.78;;;32.79;31.77
9335;BME280;4706;41.844;26.082;2023-06-14T13:24:13;100334.16;;;32.70;32.25